Latest Coastal Weather Observations for Truscott

IDD60701

Issued at 1:41 pm CST Sunday 1 February 2015 (issued every 10 minutes, with the page automatically refreshed every 10 minutes)

About coastal observations | Map of coastal stations | Coastal observations for NT | Marine services | Other Formats
Station Details ID: 001020 Name: TRUSCOTT Lat: -14.09 Lon: 126.39 Height: 51.0 m
Data from the previous 72 hours. | See also: Recent months at Truscott
Date/Time
CST
Temp

°C
Wind Pressure Rain
since 9am
mm
Weather Cloud Vis
km
Sea
Height
m
Swell
Dir
 
Speed
knots
Gust
knots
hPa Trend Height
m
Period
s
Dir
01/01:30pm 31.1 W 13 19 1007.9 - 0.0 - Cloudy 10 - - - -
01/01:00pm 31.5 WSW 10 15 1008.9 - 0.0 - - 10 - - - -
01/12:30pm 30.3 W 11 17 1009.4 - 0.0 - Partly cloudy 10 - - - -
01/12:00pm 30.4 W 10 18 1009.7 - 0.0 - Partly cloudy 10 - - - -
01/11:30am 29.7 W 12 18 1009.8 - 0.0 - Partly cloudy 10 - - - -
01/11:00am 29.9 WSW 11 17 1010.0 - 0.0 - Partly cloudy 10 - - - -
01/10:30am 29.5 W 13 19 1009.4 - 2.2 - Cloudy 10 - - - -
01/10:00am 29.6 WSW 10 16 1010.1 - 2.2 - Partly cloudy 10 - - - -
01/09:30am 29.0 W 11 17 1010.1 - 2.2 - Partly cloudy 10 - - - -
01/09:00am 28.9 W 8 11 1010.2 - 2.2 - Partly cloudy 10 - - - -
01/08:30am 28.4 W 9 15 1010.1 - 2.2 - Partly cloudy 10 - - - -
01/08:00am 28.0 W 7 9 1009.9 - 2.2 - Partly cloudy 10 - - - -
01/07:30am 27.8 WSW 8 12 1008.8 - 2.2 - Cloudy 10 - - - -
01/07:00am 27.6 WSW 8 12 1009.1 - 2.2 - Partly cloudy 10 - - - -
01/06:30am 27.1 WSW 7 11 1008.4 - 2.2 - Partly cloudy 10 - - - -
01/06:00am 26.0 WSW 5 8 1008.0 - 2.2 - Partly cloudy 10 - - - -
01/05:30am 25.0 WNW 3 4 1008.3 - 2.0 - Partly cloudy 10 - - - -
01/05:00am 24.9 NW 2 4 1008.0 - 2.0 - Partly cloudy 10 - - - -
01/04:43am 25.2 E 2 6 1007.7 - 2.0 - Partly cloudy 10 - - - -
01/04:30am 24.9 NNE 5 7 1007.3 - 1.8 - Cloudy 3 - - - -
01/04:24am 25.5 E 5 8 1008.2 - 0.6 - Partly cloudy 5 - - - -
01/04:00am 28.2 WSW 5 9 1008.0 - 0.0 - Partly cloudy 10 - - - -
01/03:30am 28.2 WSW 7 10 1008.0 - 0.0 - Partly cloudy 10 - - - -
01/03:00am 28.3 WSW 7 14 1007.8 - 0.0 - Partly cloudy 10 - - - -
01/02:30am 28.5 W 9 15 1008.0 - 0.0 - Partly cloudy 10 - - - -
01/02:00am 28.5 W 10 15 1008.1 - 0.0 - Partly cloudy 10 - - - -
01/01:30am 28.5 W 11 15 1007.6 - 0.0 - Cloudy 10 - - - -
01/01:00am 28.4 W 10 17 1008.6 - 0.0 - Partly cloudy 10 - - - -
01/12:30am 28.5 W 10 15 1009.0 - 0.0 - Partly cloudy 10 - - - -
01/12:00am 28.6 W 11 16 1009.3 - 0.0 - - 10 - - - -
 
Date/Time
CST
Temp

°C
Wind Pressure Rain
since 9am
mm
Weather Cloud Vis
km
Sea
Height
m
Swell
Dir
 
Speed
knots
Gust
knots
hPa Trend Height
m
Period
s
Dir
31/11:30pm 28.7 W 9 13 1009.3 - 0.0 - Partly cloudy 10 - - - -
31/11:00pm 28.7 W 9 13 1009.2 - 0.0 - Partly cloudy 10 - - - -
31/10:30pm 28.6 W 8 13 1008.1 - 0.0 - - 10 - - - -
31/10:00pm 28.7 W 10 15 1008.4 - 0.0 - - 10 - - - -
31/09:30pm 28.7 W 8 12 1008.3 - 0.0 - - 10 - - - -
31/09:00pm 28.7 W 9 13 1007.8 - 0.0 - - 10 - - - -
31/08:30pm 28.9 W 8 12 1007.6 - 0.0 - - 10 - - - -
31/08:00pm 29.2 W 9 14 1007.1 - 0.0 - - 10 - - - -
31/07:30pm 29.3 W 10 15 1006.0 - 0.0 - - 10 - - - -
31/07:00pm 30.0 W 10 16 1006.1 - 0.0 - - 10 - - - -
31/06:30pm 30.3 W 11 17 1006.0 - 0.0 - - 10 - - - -
31/06:00pm 30.1 WSW 12 16 1005.7 - 0.0 - - 10 - - - -
31/05:30pm 30.2 W 13 19 1005.4 - 0.0 - - 10 - - - -
31/05:00pm 30.5 W 10 16 1005.7 - 0.0 - - 10 - - - -
31/04:30pm 30.1 W 11 17 1005.6 - 0.0 - - 10 - - - -
31/04:00pm 30.3 W 11 16 1006.7 - 0.0 - - 10 - - - -
31/03:30pm 30.2 W 12 18 1006.9 - 0.0 - - 10 - - - -
31/03:00pm 30.7 W 13 18 1007.2 - 0.0 - - 10 - - - -
31/02:30pm 31.2 W 12 18 1007.5 - 0.0 - - 10 - - - -
31/02:00pm 31.1 W 13 19 1007.8 - 0.0 - - 10 - - - -
31/01:30pm 31.6 W 10 16 1007.6 - 0.0 - - 10 - - - -
31/01:00pm 31.4 W 12 18 1008.7 - 0.0 - - 10 - - - -
31/12:30pm 30.7 W 10 15 1008.8 - 0.0 - - 10 - - - -
31/12:00pm 30.7 W 9 14 1009.2 - 0.0 - Partly cloudy 10 - - - -
31/11:30am 30.0 W 9 15 1009.7 - 0.0 - Partly cloudy 10 - - - -
31/11:00am 30.6 WSW 8 14 1009.7 - 0.0 - Partly cloudy 10 - - - -
31/10:30am 30.3 WSW 9 16 1009.2 - 2.0 - Cloudy 10 - - - -
31/10:00am 29.7 WSW 9 13 1009.8 - 2.0 - - 10 - - - -
31/09:30am 29.1 WSW 9 13 1009.8 - 1.8 - - 10 - - - -
31/09:00am 28.8 WSW 8 11 1009.7 - 1.8 - - 10 - - - -
31/08:30am 28.6 WSW 8 13 1009.4 - 1.8 - - 10 - - - -
31/08:00am 27.8 SW 5 7 1008.8 - 1.8 - - 10 - - - -
31/07:30am 26.7 SW 4 6 1007.9 - 1.8 - - 10 - - - -
31/07:00am 26.2 SW 5 6 1008.3 - 1.8 - - 10 - - - -
31/06:30am 26.4 SW 5 6 1008.2 - 1.8 - - 10 - - - -
31/06:00am 26.6 SW 5 7 1007.9 - 1.8 - - 10 - - - -
31/05:30am 26.7 SW 5 7 1007.9 - 1.8 - - 10 - - - -
31/05:00am 26.7 SW 6 8 1007.9 - 1.8 - - 10 - - - -
31/04:30am 26.6 SW 6 8 1007.1 - 1.8 - - 10 - - - -
31/04:00am 26.7 SW 4 5 1008.0 - 1.8 - - 10 - - - -
31/03:30am 26.7 SW 4 5 1007.9 - 1.8 - Partly cloudy 10 - - - -
31/03:00am 26.8 WSW 3 5 1007.9 - 1.8 - Partly cloudy 10 - - - -
31/02:30am 26.4 WSW 2 5 1007.8 - 1.8 - - 10 - - - -
31/02:00am 26.6 WSW 4 5 1008.2 - 1.8 - - 10 - - - -
31/01:30am 26.2 WSW 4 6 1007.6 - 1.8 - - 10 - - - -
31/01:00am 25.5 CALM 0 0 1008.6 - 1.8 - Partly cloudy 10 - - - -
31/12:30am 25.5 CALM 0 4 1009.0 - 1.8 - Partly cloudy 10 - - - -
31/12:00am 25.4 WNW 10 16 1009.5 - 1.4 - Partly cloudy 8 - - - -
 
Date/Time
CST
Temp

°C
Wind Pressure Rain
since 9am
mm
Weather Cloud Vis
km
Sea
Height
m
Swell
Dir
 
Speed
knots
Gust
knots
hPa Trend Height
m
Period
s
Dir
30/11:30pm 26.1 W 8 15 1009.5 - 0.0 - Partly cloudy 10 - - - -
30/11:00pm 28.5 W 8 13 1009.3 - 0.0 - Partly cloudy 10 - - - -
30/10:30pm 28.6 W 7 10 1008.3 - 0.0 - Cloudy 10 - - - -
30/10:00pm 28.5 WSW 4 6 1008.5 - 0.0 - - 10 - - - -
30/09:30pm 28.5 WSW 5 7 1008.2 - 0.0 - - 10 - - - -
30/09:00pm 28.5 WSW 5 9 1007.6 - 0.0 - - 10 - - - -
30/08:30pm 28.6 WSW 5 7 1007.0 - 0.0 - - 10 - - - -
30/08:00pm 28.8 WSW 7 11 1006.6 - 0.0 - - 10 - - - -
30/07:30pm 29.0 W 8 12 1005.6 - 0.0 - - 10 - - - -
30/07:00pm 29.7 W 10 13 1005.8 - 0.0 - - 10 - - - -
30/06:30pm 30.0 W 9 14 1005.4 - 0.0 - - 10 - - - -
30/06:00pm 30.3 WNW 9 15 1005.3 - 0.0 - - 10 - - - -
30/05:30pm 29.9 W 11 17 1005.4 - 0.0 - Partly cloudy 10 - - - -
30/05:00pm 30.2 W 11 15 1005.7 - 0.0 - Partly cloudy 10 - - - -
30/04:30pm 30.5 W 11 16 1005.3 - 0.0 - Cloudy 10 - - - -
30/04:00pm 30.6 W 12 17 1005.6 - 0.0 - - 10 - - - -
30/03:30pm 31.6 W 11 18 1005.8 - 0.0 - - 10 - - - -
30/03:00pm 31.8 W 10 15 1006.0 - 0.0 - Partly cloudy 10 - - - -
30/02:30pm 30.9 W 11 17 1006.2 - 0.0 - Partly cloudy 10 - - - -
30/02:00pm 31.4 W 11 16 1006.9 - 0.0 - - 10 - - - -
30/01:30pm 31.1 W 9 15 1006.8 - 0.0 - - 10 - - - -
30/01:00pm 31.6 W 9 14 1007.8 - 0.0 - - 10 - - - -
30/12:30pm 31.3 WSW 10 14 1008.3 - 0.0 - Partly cloudy 10 - - - -
30/12:00pm 30.5 W 8 11 1008.5 - 0.0 - Partly cloudy 10 - - - -
30/11:30am 30.1 W 6 11 1009.0 - 0.0 - Partly cloudy 10 - - - -
30/11:00am 29.5 WNW 6 9 1009.2 - 0.0 - Partly cloudy 10 - - - -
30/10:30am 29.1 W 7 11 1008.7 - 0.0 - Cloudy 10 - - - -
30/10:00am 28.6 W 5 8 1008.9 - 0.0 - - 10 - - - -
30/09:30am 27.9 W 5 6 1008.9 - 0.0 - - 10 - - - -
30/09:00am 27.2 W 5 7 1008.6 - 0.0 - - 10 - - - -
30/08:30am 26.8 WSW 5 6 1008.0 - 0.0 - - 10 - - - -
30/08:00am 26.4 W 5 6 1007.7 - 0.0 - - 10 - - - -
30/07:30am 25.5 WSW 6 8 1007.0 - 0.0 - - 10 - - - -
30/07:00am 25.4 SW 4 6 1007.1 - 0.0 - - 10 - - - -
30/06:30am 25.4 W 4 5 1006.5 - 0.0 - - 10 - - - -
30/06:00am 24.9 WSW 3 4 1006.4 - 0.0 - - 10 - - - -
30/05:30am 25.6 SSW 5 6 1006.1 - 0.0 - - 10 - - - -
30/05:00am 25.3 SW 5 6 1006.1 - 0.0 - - 10 - - - -
30/04:30am 25.6 ESE 2 4 1005.4 - 0.0 - - 10 - - - -
30/04:00am 25.5 E 5 6 1006.2 - 0.0 - Partly cloudy 10 - - - -
30/03:30am 25.6 ESE 3 5 1006.5 - 0.0 - - 10 - - - -
30/03:00am 26.0 S 5 8 1006.6 - 0.0 - - 10 - - - -
30/02:30am 26.5 S 7 9 1007.1 - 0.0 - Partly cloudy 10 - - - -
30/02:00am 26.8 S 8 11 1007.5 - 0.0 - - 10 - - - -
30/01:30am 27.6 SW 6 8 1007.1 - 0.0 - Cloudy 10 - - - -
30/01:00am 27.8 W 3 4 1008.1 - 0.0 - Partly cloudy 10 - - - -
30/12:30am 27.8 W 4 5 1008.4 - 0.0 - Partly cloudy 10 - - - -
30/12:00am 27.9 W 4 6 1008.7 - 0.0 - Partly cloudy 9 - - - -
 
Date/Time
CST
Temp

°C
Wind Pressure Rain
since 9am
mm
Weather Cloud Vis
km
Sea
Height
m
Swell
Dir
 
Speed
knots
Gust
knots
hPa Trend Height
m
Period
s
Dir
29/11:30pm 28.0 WSW 4 6 1008.7 - 0.0 - Partly cloudy 10 - - - -
29/11:00pm 28.1 W 5 7 1008.4 - 0.0 - Partly cloudy 10 - - - -
29/10:30pm 28.1 W 4 7 1007.8 - 0.0 - - 10 - - - -
29/10:00pm 28.2 W 6 8 1008.0 - 0.0 - - 10 - - - -
29/09:30pm 28.3 W 6 8 1007.9 - 0.0 - - 10 - - - -
29/09:00pm 28.5 W 5 7 1007.3 - 0.0 - - 10 - - - -
29/08:30pm 28.3 NW 4 6 1006.8 - 0.0 - - 10 - - - -
29/08:00pm 28.4 NW 5 8 1006.1 - 0.0 - - 10 - - - -
29/07:30pm 28.5 NW 5 8 1004.8 - 0.0 - - 10 - - - -
29/07:00pm 29.1 NW 6 9 1005.0 - 0.0 - - 10 - - - -
29/06:30pm 29.2 N 6 8 1004.7 - 0.0 - - 10 - - - -
29/06:00pm 29.4 NNW 7 10 1004.4 - 0.0 - - 10 - - - -
29/05:30pm 29.8 NNW 7 12 1004.0 - 0.0 - - 10 - - - -
29/05:00pm 30.4 NW 5 8 1003.9 - 0.0 - - 10 - - - -
29/04:30pm 30.2 WNW 7 9 1003.6 - 0.0 - - 10 - - - -
29/04:00pm 30.3 WNW 6 9 1004.2 - 0.0 - - 10 - - - -
29/03:30pm 29.9 W 7 8 1004.6 - 0.0 - - 10 - - - -

Other Formats:

Comma delimited format used in spreadsheet applications
http://www.bom.gov.au/fwo/IDD60701/IDD60701.95101.axf

JavaScript Object Notation format (JSON) in row-major order
http://www.bom.gov.au/fwo/IDD60701/IDD60701.95101.json